Time;durP1;ratioP1;P1;durP2;ratioP2;P2;SDS_P1;SDS_P2;PMS_P1;PMS_P2;Temp;Humidity;BMP_temperature;BMP_pressure;BME280_temperature;BME280_humidity;BME280_pressure;Samples;Min_cycle;Max_cycle;Signal;HPM_P1;HPM_P2
2023/09/27 04:06:51;;;;;;;;;14.00;13.00;;;;;;;;6295465;39;5001373;-56
2023/09/27 04:12:55;;;;;;;;;15.33;13.67;;;;;;;;6491992;39;8984;-57
2023/09/27 07:36:26;;;;;;;;;16.75;16.25;;;;;;;;6490625;39;9019;-61
2023/09/27 07:42:29;;;;;;;;;23.50;22.50;;;;;;;;6488520;39;8927;-60
2023/09/27 07:48:39;;;;;;;;;19.75;19.25;;;;;;;;6491101;46;8900;-59
2023/09/27 07:54:45;;;;;;;;;21.25;20.75;;;;;;;;6490450;39;8910;-61
2023/09/27 08:00:50;;;;;;;;;17.75;17.75;;;;;;;;6491050;46;9135;-60
2023/09/27 08:06:55;;;;;;;;;19.50;19.00;;;;;;;;6490891;46;8935;-59
2023/09/27 08:12:59;;;;;;;;;19.75;19.25;;;;;;;;6490685;39;8922;-60
2023/09/27 08:19:02;;;;;;;;;20.50;19.00;;;;;;;;6492313;39;8952;-59
2023/09/27 08:25:08;;;;;;;;;22.25;18.75;;;;;;;;6490477;46;8898;-63
2023/09/27 08:31:14;;;;;;;;;13.50;13.50;;;;;;;;6488928;39;9047;-59
2023/09/27 08:37:17;;;;;;;;;18.25;18.25;;;;;;;;6490758;31;8957;-59
2023/09/27 08:43:26;;;;;;;;;10.00;10.00;;;;;;;;6488488;39;8939;-60
2023/09/27 08:49:30;;;;;;;;;18.50;15.25;;;;;;;;6488602;39;8919;-58
2023/09/27 08:55:36;;;;;;;;;13.25;11.25;;;;;;;;6489369;31;8963;-60
2023/09/27 09:01:42;;;;;;;;;14.25;13.00;;;;;;;;6488174;47;8987;-58
2023/09/27 09:07:45;;;;;;;;;13.50;12.50;;;;;;;;6489583;31;8949;-62
2023/09/27 09:14:04;;;;;;;;;11.00;9.50;;;;;;;;6489178;31;8919;-60
2023/09/27 09:20:21;;;;;;;;;14.25;13.00;;;;;;;;6490162;31;9543;-59
2023/09/27 09:26:29;;;;;;;;;13.00;12.00;;;;;;;;6488510;47;8927;-59
2023/09/27 09:32:33;;;;;;;;;13.75;9.00;;;;;;;;6488669;31;8975;-58
2023/09/27 09:38:43;;;;;;;;;14.50;14.25;;;;;;;;6490325;39;8940;-60
2023/09/27 09:44:58;;;;;;;;;12.50;12.25;;;;;;;;6491213;31;9025;-59
2023/09/27 09:51:11;;;;;;;;;12.00;11.75;;;;;;;;6490756;39;8912;-59
2023/09/27 09:57:19;;;;;;;;;13.25;13.25;;;;;;;;6489720;46;8935;-61
2023/09/27 10:03:52;;;;;;;;;18.75;17.75;;;;;;;;6491384;31;8912;-61
2023/09/27 10:09:57;;;;;;;;;15.25;15.25;;;;;;;;6490369;39;9610;-61
2023/09/27 10:16:03;;;;;;;;;13.00;13.00;;;;;;;;6490209;46;8959;-60
2023/09/27 10:22:16;;;;;;;;;16.00;15.00;;;;;;;;6489530;46;8909;-58
2023/09/27 10:28:28;;;;;;;;;12.00;12.00;;;;;;;;6490127;39;9148;-60
2023/09/27 10:34:31;;;;;;;;;14.00;13.75;;;;;;;;6487551;39;9008;-61
2023/09/27 10:40:42;;;;;;;;;13.50;12.75;;;;;;;;6487799;31;8898;-59
2023/09/27 10:46:49;;;;;;;;;12.25;12.25;;;;;;;;6488091;39;9025;-60
2023/09/27 10:52:55;;;;;;;;;11.50;11.25;;;;;;;;6488819;39;8914;-61
2023/09/27 10:59:03;;;;;;;;;11.75;11.25;;;;;;;;6488415;39;8962;-59
2023/09/27 11:05:08;;;;;;;;;12.25;11.75;;;;;;;;6489787;39;8935;-59
2023/09/27 11:11:11;;;;;;;;;16.00;16.00;;;;;;;;6489851;39;9002;-59
2023/09/27 11:17:22;;;;;;;;;14.00;12.25;;;;;;;;6489208;46;8943;-59
2023/09/27 11:23:55;;;;;;;;;13.00;10.75;;;;;;;;6488650;31;8909;-59
2023/09/27 11:29:58;;;;;;;;;11.25;10.25;;;;;;;;6489487;46;8949;-61
2023/09/27 11:36:10;;;;;;;;;7.75;7.75;;;;;;;;6487119;39;9026;-58
2023/09/27 11:42:14;;;;;;;;;16.50;16.50;;;;;;;;6485797;31;8924;-60
2023/09/27 11:48:36;;;;;;;;;13.50;10.25;;;;;;;;6488002;39;8950;-62
2023/09/27 11:54:45;;;;;;;;;6.25;6.00;;;;;;;;6487858;39;8915;-60
2023/09/27 12:00:49;;;;;;;;;10.00;10.00;;;;;;;;6487147;39;8977;-63
2023/09/27 12:06:57;;;;;;;;;6.50;6.50;;;;;;;;6486975;31;8942;-63
2023/09/27 12:13:16;;;;;;;;;13.50;12.00;;;;;;;;6488939;46;8954;-60
2023/09/27 12:19:20;;;;;;;;;13.50;13.25;;;;;;;;6487522;46;8942;-61
2023/09/27 12:25:23;;;;;;;;;8.50;8.50;;;;;;;;6488970;39;8954;-59
2023/09/27 12:31:29;;;;;;;;;10.25;9.50;;;;;;;;6516705;36;8903;-60
2023/09/27 12:37:32;;;;;;;;;10.00;10.00;;;;;;;;6487364;39;8942;-60
2023/09/27 12:43:40;;;;;;;;;8.00;8.00;;;;;;;;6486432;39;8961;-59
2023/09/27 12:49:43;;;;;;;;;12.00;11.50;;;;;;;;6485603;39;8968;-59
2023/09/27 12:55:51;;;;;;;;;8.25;8.00;;;;;;;;6485855;31;9643;-61
2023/09/27 13:01:54;;;;;;;;;14.25;13.50;;;;;;;;6486836;39;8954;-59
2023/09/27 13:08:08;;;;;;;;;9.00;9.00;;;;;;;;6487076;39;8906;-61
2023/09/27 13:14:12;;;;;;;;;7.00;6.25;;;;;;;;6485069;39;9026;-62
2023/09/27 13:20:19;;;;;;;;;7.75;6.75;;;;;;;;6486085;39;8960;-60
2023/09/27 13:26:25;;;;;;;;;12.25;11.00;;;;;;;;6486913;31;9560;-61
2023/09/27 13:32:28;;;;;;;;;9.00;8.25;;;;;;;;6487301;31;8984;-60
2023/09/27 13:38:33;;;;;;;;;8.00;8.00;;;;;;;;6484867;39;9624;-59
2023/09/27 13:44:41;;;;;;;;;10.75;9.00;;;;;;;;6488512;31;8914;-61
2023/09/27 13:50:50;;;;;;;;;7.25;7.25;;;;;;;;6487610;31;8926;-60
2023/09/27 13:57:00;;;;;;;;;5.25;5.25;;;;;;;;6488590;39;8957;-60
2023/09/27 14:03:04;;;;;;;;;8.25;8.25;;;;;;;;6488504;46;9001;-61
2023/09/27 14:09:10;;;;;;;;;8.50;7.25;;;;;;;;6489812;39;8891;-58
2023/09/27 14:15:15;;;;;;;;;7.00;6.00;;;;;;;;6488048;39;8914;-59
2023/09/27 14:21:21;;;;;;;;;9.25;9.25;;;;;;;;6488695;39;8906;-60
2023/09/27 14:27:25;;;;;;;;;6.00;6.00;;;;;;;;6488665;39;8887;-58
2023/09/27 14:33:29;;;;;;;;;8.00;8.00;;;;;;;;6489430;39;9019;-59
2023/09/27 14:39:34;;;;;;;;;8.25;7.00;;;;;;;;6487159;46;8937;-58
2023/09/27 14:45:40;;;;;;;;;10.75;9.00;;;;;;;;6488396;46;8915;-59
2023/09/27 14:51:49;;;;;;;;;7.00;7.00;;;;;;;;6488503;39;8979;-60
2023/09/27 14:57:58;;;;;;;;;8.50;8.50;;;;;;;;6488202;39;9060;-61
2023/09/27 15:04:02;;;;;;;;;8.50;7.75;;;;;;;;6487879;46;8911;-60
2023/09/27 15:10:07;;;;;;;;;8.25;8.00;;;;;;;;6486923;39;8900;-59
2023/09/27 15:16:10;;;;;;;;;7.00;7.00;;;;;;;;6489160;39;9581;-61
2023/09/27 15:22:14;;;;;;;;;7.50;6.25;;;;;;;;6486833;31;8936;-61
2023/09/27 15:28:19;;;;;;;;;7.00;7.00;;;;;;;;6488431;39;8980;-59
2023/09/27 15:34:22;;;;;;;;;5.25;5.00;;;;;;;;6488646;39;9533;-58
2023/09/27 15:40:25;;;;;;;;;8.67;7.67;;;;;;;;6487727;31;8921;-59
2023/09/27 15:46:28;;;;;;;;;7.00;7.00;;;;;;;;6488533;46;9017;-60
2023/09/27 15:52:37;;;;;;;;;7.00;7.00;;;;;;;;6488549;39;8850;-59
2023/09/27 15:58:40;;;;;;;;;6.75;5.75;;;;;;;;6488724;39;8930;-60
2023/09/27 16:04:42;;;;;;;;;13.50;12.50;;;;;;;;6487943;32;8899;-59
2023/09/27 16:10:59;;;;;;;;;9.75;8.25;;;;;;;;6488099;46;8854;-58
2023/09/27 16:17:04;;;;;;;;;11.25;9.75;;;;;;;;6488984;39;8910;-60
2023/09/27 16:23:08;;;;;;;;;11.50;10.00;;;;;;;;6488345;31;8847;-59
2023/09/27 16:29:15;;;;;;;;;9.00;9.00;;;;;;;;6486773;39;8920;-58
2023/09/27 16:35:18;;;;;;;;;8.50;8.50;;;;;;;;6487605;31;8906;-59
2023/09/27 16:41:27;;;;;;;;;9.00;7.50;;;;;;;;6487985;39;8906;-63
2023/09/27 16:47:50;;;;;;;;;12.50;10.75;;;;;;;;6490655;31;8870;-58
2023/09/27 16:53:54;;;;;;;;;9.00;9.00;;;;;;;;6489215;39;8919;-58
2023/09/27 17:00:05;;;;;;;;;9.75;9.00;;;;;;;;6490833;39;8914;-58
2023/09/27 17:06:13;;;;;;;;;12.75;11.50;;;;;;;;6488642;39;8969;-57
2023/09/27 17:12:18;;;;;;;;;11.50;10.00;;;;;;;;6490572;39;9459;-57
2023/09/27 17:18:22;;;;;;;;;10.50;9.50;;;;;;;;6489644;31;8937;-58
2023/09/27 17:24:24;;;;;;;;;13.50;10.75;;;;;;;;6488791;46;8835;-60
2023/09/27 17:30:27;;;;;;;;;9.75;9.50;;;;;;;;6490471;39;8878;-57
2023/09/27 17:36:30;;;;;;;;;5.00;5.00;;;;;;;;6490430;39;8842;-56
2023/09/27 17:42:38;;;;;;;;;8.00;8.00;;;;;;;;6490245;39;8909;-58
2023/09/27 17:48:40;;;;;;;;;10.00;8.50;;;;;;;;6489267;31;8858;-58
2023/09/27 17:54:48;;;;;;;;;10.25;9.00;;;;;;;;6489353;46;9099;-59
2023/09/27 18:00:50;;;;;;;;;8.50;8.00;;;;;;;;6489366;46;8934;-55
2023/09/27 18:06:53;;;;;;;;;9.50;8.50;;;;;;;;6489551;39;9466;-57
2023/09/27 18:12:58;;;;;;;;;6.50;6.50;;;;;;;;6489430;46;8851;-59
2023/09/27 18:19:01;;;;;;;;;9.75;8.00;;;;;;;;6490492;31;8835;-57
2023/09/27 18:25:05;;;;;;;;;7.75;7.25;;;;;;;;6487519;46;8985;-56
2023/09/27 18:31:07;;;;;;;;;7.75;7.75;;;;;;;;6489591;31;8969;-59
2023/09/27 18:37:11;;;;;;;;;8.00;8.00;;;;;;;;6489370;39;8902;-56
2023/09/27 18:43:16;;;;;;;;;6.25;6.25;;;;;;;;6489904;46;8831;-56
2023/09/27 18:49:20;;;;;;;;;9.75;8.25;;;;;;;;6488553;31;8874;-57
2023/09/27 18:55:23;;;;;;;;;9.00;8.33;;;;;;;;6489884;31;8894;-57
2023/09/27 19:01:26;;;;;;;;;11.00;8.00;;;;;;;;6489116;39;9043;-57
2023/09/27 19:07:30;;;;;;;;;12.00;10.00;;;;;;;;6488960;39;8850;-58
2023/09/27 19:13:33;;;;;;;;;10.33;7.00;;;;;;;;6490206;31;9033;-57
2023/09/27 19:19:43;;;;;;;;;10.33;8.67;;;;;;;;6488151;39;8858;-57
2023/09/27 19:25:47;;;;;;;;;7.00;7.00;;;;;;;;6489714;39;8961;-59
2023/09/27 19:31:50;;;;;;;;;9.67;9.00;;;;;;;;6489557;39;8910;-58
2023/09/27 19:37:52;;;;;;;;;12.00;10.00;;;;;;;;6489103;39;8914;-57
2023/09/27 19:43:59;;;;;;;;;10.33;7.67;;;;;;;;6489407;46;8863;-57
2023/09/27 19:50:08;;;;;;;;;12.67;10.00;;;;;;;;6488573;46;8899;-58
2023/09/27 19:56:12;;;;;;;;;11.33;11.33;;;;;;;;6489620;31;8933;-57
2023/09/27 20:02:15;;;;;;;;;10.00;9.00;;;;;;;;6488137;31;9561;-57
2023/09/27 20:08:18;;;;;;;;;12.33;10.00;;;;;;;;6488121;39;8878;-57
2023/09/27 20:14:22;;;;;;;;;13.67;11.33;;;;;;;;6487613;46;9013;-58
2023/09/27 20:20:25;;;;;;;;;11.00;11.00;;;;;;;;6485867;47;9072;-58
2023/09/27 20:26:37;;;;;;;;;11.00;10.00;;;;;;;;6488329;39;8870;-58
2023/09/27 20:32:40;;;;;;;;;10.67;9.33;;;;;;;;6488016;31;8918;-57
2023/09/27 20:38:43;;;;;;;;;10.67;9.67;;;;;;;;6488278;39;8883;-56
2023/09/27 20:44:52;;;;;;;;;8.67;8.67;;;;;;;;6489463;39;8847;-55
2023/09/27 20:50:57;;;;;;;;;8.33;8.33;;;;;;;;6488023;39;8986;-54
2023/09/27 20:57:02;;;;;;;;;10.00;8.33;;;;;;;;6487777;47;8891;-58
2023/09/27 21:03:06;;;;;;;;;11.00;10.00;;;;;;;;6487203;39;8859;-57
2023/09/27 21:09:10;;;;;;;;;10.67;10.33;;;;;;;;6488233;39;8871;-57
2023/09/27 21:15:13;;;;;;;;;11.67;10.00;;;;;;;;6488514;39;9053;-57
2023/09/27 21:21:18;;;;;;;;;9.33;9.33;;;;;;;;6486682;39;8915;-56
2023/09/27 21:27:22;;;;;;;;;8.00;8.00;;;;;;;;6488475;39;8899;-58
2023/09/27 21:33:24;;;;;;;;;13.00;11.00;;;;;;;;6490015;46;8992;-56
2023/09/27 21:39:35;;;;;;;;;11.00;11.00;;;;;;;;6489233;46;8942;-58
2023/09/27 21:45:40;;;;;;;;;13.00;9.33;;;;;;;;6489946;39;8915;-57
2023/09/27 21:51:44;;;;;;;;;13.00;11.33;;;;;;;;6489916;39;8851;-55
2023/09/27 21:57:47;;;;;;;;;8.67;8.67;;;;;;;;6490810;39;9037;-57
2023/09/27 22:03:49;;;;;;;;;9.00;8.00;;;;;;;;6490003;31;9458;-56
2023/09/27 22:09:54;;;;;;;;;8.33;8.00;;;;;;;;6489856;39;9466;-56
2023/09/27 22:15:58;;;;;;;;;12.00;12.00;;;;;;;;6489360;46;8890;-56
2023/09/27 22:22:02;;;;;;;;;10.67;10.67;;;;;;;;6487651;46;8947;-58
2023/09/27 22:28:18;;;;;;;;;11.33;11.33;;;;;;;;6488665;39;8875;-57
2023/09/27 22:34:24;;;;;;;;;9.67;9.67;;;;;;;;6488839;46;8891;-57
2023/09/27 22:40:28;;;;;;;;;12.00;11.00;;;;;;;;6489862;39;8902;-55
2023/09/27 22:46:32;;;;;;;;;12.00;10.00;;;;;;;;6489904;39;8890;-56
2023/09/27 22:52:40;;;;;;;;;13.33;10.67;;;;;;;;6489184;31;8882;-58
2023/09/27 22:58:44;;;;;;;;;8.33;8.00;;;;;;;;6489433;39;8965;-57
2023/09/27 23:04:51;;;;;;;;;9.67;9.67;;;;;;;;6489097;46;8882;-57
2023/09/27 23:10:56;;;;;;;;;12.33;10.00;;;;;;;;6490079;39;8887;-56
2023/09/27 23:17:17;;;;;;;;;14.00;11.33;;;;;;;;6489267;31;8874;-56
2023/09/27 23:23:20;;;;;;;;;10.67;9.00;;;;;;;;6489736;39;10081;-58
2023/09/27 23:35:33;;;;;;;;;9.00;9.00;;;;;;;;6489422;39;8870;-56
2023/09/27 23:41:39;;;;;;;;;13.67;11.00;;;;;;;;6488872;39;9975;-57
2023/09/27 23:47:43;;;;;;;;;10.33;10.00;;;;;;;;6487905;46;8875;-56
2023/09/27 23:53:46;;;;;;;;;11.00;10.67;;;;;;;;6489384;39;8948;-57
2023/09/27 23:59:51;;;;;;;;;11.33;11.00;;;;;;;;6489048;39;8922;-56
